sensor_id;sensor_type;location;lat;lon;timestamp;pressure;altitude;pressure_sealevel;temperature;humidity
71915;BME280;60387;49.994;14.660;2023-06-10T00:02:18;97435.53;;;20.94;52.82
71915;BME280;60387;49.994;14.660;2023-06-10T00:04:52;97439.88;;;20.95;53.27
71915;BME280;60387;49.994;14.660;2023-06-10T00:07:25;97433.59;;;20.94;53.13
71915;BME280;60387;49.994;14.660;2023-06-10T00:09:59;97432.75;;;20.90;53.00
71915;BME280;60387;49.994;14.660;2023-06-10T00:12:32;97432.78;;;20.94;53.02
71915;BME280;60387;49.994;14.660;2023-06-10T00:15:06;97435.94;;;20.92;53.12
71915;BME280;60387;49.994;14.660;2023-06-10T00:17:40;97439.41;;;20.89;53.58
71915;BME280;60387;49.994;14.660;2023-06-10T00:20:13;97435.00;;;20.85;53.21
71915;BME280;60387;49.994;14.660;2023-06-10T00:22:50;97446.78;;;20.82;53.02
71915;BME280;60387;49.994;14.660;2023-06-10T00:25:23;97449.91;;;20.80;53.14
71915;BME280;60387;49.994;14.660;2023-06-10T00:27:56;97441.22;;;20.78;53.38
71915;BME280;60387;49.994;14.660;2023-06-10T00:30:29;97443.13;;;20.74;53.20
71915;BME280;60387;49.994;14.660;2023-06-10T00:33:03;97441.53;;;20.73;53.19
71915;BME280;60387;49.994;14.660;2023-06-10T00:35:36;97427.72;;;20.66;53.15
71915;BME280;60387;49.994;14.660;2023-06-10T00:38:09;97434.03;;;20.70;53.03
71915;BME280;60387;49.994;14.660;2023-06-10T00:40:43;97440.66;;;20.66;53.08
71915;BME280;60387;49.994;14.660;2023-06-10T00:43:16;97438.66;;;20.63;53.49
71915;BME280;60387;49.994;14.660;2023-06-10T00:45:50;97442.47;;;20.55;53.10
71915;BME280;60387;49.994;14.660;2023-06-10T00:48:24;97434.47;;;20.46;53.37
71915;BME280;60387;49.994;14.660;2023-06-10T00:50:57;97447.47;;;20.46;53.07
71915;BME280;60387;49.994;14.660;2023-06-10T00:53:32;97446.19;;;20.40;53.26
71915;BME280;60387;49.994;14.660;2023-06-10T00:56:06;97451.63;;;20.36;53.12
71915;BME280;60387;49.994;14.660;2023-06-10T00:58:40;97447.25;;;20.32;53.34
71915;BME280;60387;49.994;14.660;2023-06-10T01:01:13;97443.59;;;20.24;53.49
71915;BME280;60387;49.994;14.660;2023-06-10T01:03:46;97446.66;;;20.19;53.11
71915;BME280;60387;49.994;14.660;2023-06-10T01:09:33;97454.03;;;20.12;53.34
71915;BME280;60387;49.994;14.660;2023-06-10T01:12:31;97454.97;;;20.00;53.70
71915;BME280;60387;49.994;14.660;2023-06-10T01:15:08;97457.81;;;20.04;53.48
71915;BME280;60387;49.994;14.660;2023-06-10T01:17:54;97451.06;;;20.01;53.36
71915;BME280;60387;49.994;14.660;2023-06-10T01:20:29;97449.84;;;19.99;53.42
71915;BME280;60387;49.994;14.660;2023-06-10T01:23:03;97453.69;;;19.94;53.37
71915;BME280;60387;49.994;14.660;2023-06-10T01:25:41;97456.44;;;19.94;53.48
71915;BME280;60387;49.994;14.660;2023-06-10T01:28:48;97456.78;;;19.93;53.43
71915;BME280;60387;49.994;14.660;2023-06-10T01:34:09;97468.47;;;19.86;53.40
71915;BME280;60387;49.994;14.660;2023-06-10T01:36:48;97476.66;;;19.83;53.34
71915;BME280;60387;49.994;14.660;2023-06-10T01:39:24;97478.19;;;19.80;53.29
71915;BME280;60387;49.994;14.660;2023-06-10T01:41:57;97474.59;;;19.77;53.49
71915;BME280;60387;49.994;14.660;2023-06-10T01:44:32;97480.31;;;19.68;53.79
71915;BME280;60387;49.994;14.660;2023-06-10T01:47:05;97477.06;;;19.63;54.03
71915;BME280;60387;49.994;14.660;2023-06-10T01:49:38;97463.16;;;19.52;54.54
71915;BME280;60387;49.994;14.660;2023-06-10T01:52:12;97468.22;;;19.50;54.06
71915;BME280;60387;49.994;14.660;2023-06-10T01:54:45;97465.78;;;19.45;54.20
71915;BME280;60387;49.994;14.660;2023-06-10T01:57:18;97452.13;;;19.30;54.03
71915;BME280;60387;49.994;14.660;2023-06-10T01:59:51;97472.28;;;19.37;53.50
71915;BME280;60387;49.994;14.660;2023-06-10T02:02:25;97467.16;;;19.36;53.87
71915;BME280;60387;49.994;14.660;2023-06-10T02:04:58;97475.75;;;19.34;53.73
71915;BME280;60387;49.994;14.660;2023-06-10T02:07:31;97483.56;;;19.32;54.10
71915;BME280;60387;49.994;14.660;2023-06-10T02:10:05;97474.81;;;19.27;53.84
71915;BME280;60387;49.994;14.660;2023-06-10T02:12:39;97481.84;;;19.24;53.67
71915;BME280;60387;49.994;14.660;2023-06-10T02:15:12;97490.47;;;19.23;53.88
71915;BME280;60387;49.994;14.660;2023-06-10T02:17:46;97486.81;;;19.19;53.70
71915;BME280;60387;49.994;14.660;2023-06-10T02:20:19;97481.63;;;19.14;53.80
71915;BME280;60387;49.994;14.660;2023-06-10T02:22:52;97482.38;;;19.14;53.81
71915;BME280;60387;49.994;14.660;2023-06-10T02:25:25;97482.38;;;19.14;54.00
71915;BME280;60387;49.994;14.660;2023-06-10T02:27:59;97486.66;;;19.12;53.94
71915;BME280;60387;49.994;14.660;2023-06-10T02:30:32;97492.44;;;19.07;54.21
71915;BME280;60387;49.994;14.660;2023-06-10T02:33:05;97487.66;;;19.04;54.02
71915;BME280;60387;49.994;14.660;2023-06-10T02:35:39;97492.88;;;18.90;54.30
71915;BME280;60387;49.994;14.660;2023-06-10T02:38:12;97496.41;;;18.90;54.79
71915;BME280;60387;49.994;14.660;2023-06-10T02:40:45;97494.53;;;18.94;54.84
71915;BME280;60387;49.994;14.660;2023-06-10T02:43:19;97497.97;;;18.91;54.58
71915;BME280;60387;49.994;14.660;2023-06-10T02:45:52;97503.13;;;18.93;54.49
71915;BME280;60387;49.994;14.660;2023-06-10T02:48:26;97502.69;;;18.91;54.28
71915;BME280;60387;49.994;14.660;2023-06-10T02:51:00;97508.91;;;18.88;54.52
71915;BME280;60387;49.994;14.660;2023-06-10T02:53:33;97510.03;;;18.87;54.47
71915;BME280;60387;49.994;14.660;2023-06-10T02:56:06;97499.38;;;18.82;54.41
71915;BME280;60387;49.994;14.660;2023-06-10T02:58:39;97490.31;;;18.81;54.63
71915;BME280;60387;49.994;14.660;2023-06-10T03:01:13;97499.38;;;18.82;54.49
71915;BME280;60387;49.994;14.660;2023-06-10T03:03:46;97502.88;;;18.82;54.44
71915;BME280;60387;49.994;14.660;2023-06-10T03:06:19;97503.69;;;18.83;54.30
71915;BME280;60387;49.994;14.660;2023-06-10T03:08:52;97502.19;;;18.85;54.09
71915;BME280;60387;49.994;14.660;2023-06-10T03:11:26;97502.53;;;18.84;54.21
71915;BME280;60387;49.994;14.660;2023-06-10T03:13:59;97496.63;;;18.82;54.15
71915;BME280;60387;49.994;14.660;2023-06-10T03:16:32;97505.28;;;18.84;54.08
71915;BME280;60387;49.994;14.660;2023-06-10T03:19:09;97502.09;;;18.82;54.24
71915;BME280;60387;49.994;14.660;2023-06-10T03:21:44;97502.97;;;18.86;54.71
71915;BME280;60387;49.994;14.660;2023-06-10T03:24:17;97502.88;;;18.82;54.90
71915;BME280;60387;49.994;14.660;2023-06-10T03:26:51;97504.03;;;18.81;54.63
71915;BME280;60387;49.994;14.660;2023-06-10T03:29:24;97513.78;;;18.79;54.45
71915;BME280;60387;49.994;14.660;2023-06-10T03:31:57;97505.94;;;18.77;54.70
71915;BME280;60387;49.994;14.660;2023-06-10T03:34:31;97502.03;;;18.78;54.66
71915;BME280;60387;49.994;14.660;2023-06-10T03:37:04;97506.28;;;18.76;54.98
71915;BME280;60387;49.994;14.660;2023-06-10T03:39:38;97501.94;;;18.75;54.93
71915;BME280;60387;49.994;14.660;2023-06-10T03:42:11;97513.75;;;18.75;54.79
71915;BME280;60387;49.994;14.660;2023-06-10T03:44:44;97508.69;;;18.77;54.61
71915;BME280;60387;49.994;14.660;2023-06-10T03:47:18;97513.44;;;18.80;54.39
71915;BME280;60387;49.994;14.660;2023-06-10T03:49:51;97516.59;;;18.82;54.59
71915;BME280;60387;49.994;14.660;2023-06-10T03:52:24;97511.03;;;18.79;54.33
71915;BME280;60387;49.994;14.660;2023-06-10T03:54:57;97519.44;;;18.86;54.29
71915;BME280;60387;49.994;14.660;2023-06-10T03:57:31;97511.03;;;18.79;54.36
71915;BME280;60387;49.994;14.660;2023-06-10T04:00:04;97521.09;;;18.90;54.51
71915;BME280;60387;49.994;14.660;2023-06-10T04:02:38;97518.81;;;18.92;54.35
71915;BME280;60387;49.994;14.660;2023-06-10T04:05:12;97520.47;;;18.97;54.17
71915;BME280;60387;49.994;14.660;2023-06-10T04:07:45;97515.41;;;18.99;54.31
71915;BME280;60387;49.994;14.660;2023-06-10T04:10:18;97525.75;;;19.05;54.16
71915;BME280;60387;49.994;14.660;2023-06-10T04:12:52;97521.69;;;18.99;54.64
71915;BME280;60387;49.994;14.660;2023-06-10T04:15:25;97525.09;;;19.12;54.48
71915;BME280;60387;49.994;14.660;2023-06-10T04:17:58;97526.69;;;19.13;54.61
71915;BME280;60387;49.994;14.660;2023-06-10T04:20:32;97522.19;;;19.20;55.11
71915;BME280;60387;49.994;14.660;2023-06-10T04:23:05;97530.19;;;19.29;55.32
71915;BME280;60387;49.994;14.660;2023-06-10T04:25:38;97528.31;;;19.33;55.20
71915;BME280;60387;49.994;14.660;2023-06-10T04:28:11;97524.50;;;19.37;54.86
71915;BME280;60387;49.994;14.660;2023-06-10T04:30:45;97528.16;;;19.45;54.91
71915;BME280;60387;49.994;14.660;2023-06-10T04:33:18;97521.66;;;19.53;54.96
71915;BME280;60387;49.994;14.660;2023-06-10T04:35:51;97514.63;;;19.55;54.86
71915;BME280;60387;49.994;14.660;2023-06-10T04:38:25;97519.09;;;19.63;54.64
71915;BME280;60387;49.994;14.660;2023-06-10T04:40:58;97526.75;;;19.73;54.56
71915;BME280;60387;49.994;14.660;2023-06-10T04:43:31;97514.31;;;19.79;54.62
71915;BME280;60387;49.994;14.660;2023-06-10T04:46:05;97531.03;;;19.93;54.58
71915;BME280;60387;49.994;14.660;2023-06-10T04:48:38;97526.41;;;19.97;54.50
71915;BME280;60387;49.994;14.660;2023-06-10T04:51:11;97539.28;;;20.12;54.57
71915;BME280;60387;49.994;14.660;2023-06-10T04:53:44;97529.19;;;20.19;54.78
71915;BME280;60387;49.994;14.660;2023-06-10T04:56:18;97531.38;;;20.33;54.62
71915;BME280;60387;49.994;14.660;2023-06-10T04:58:51;97524.00;;;20.40;54.46
71915;BME280;60387;49.994;14.660;2023-06-10T05:01:24;97530.91;;;20.53;54.32
71915;BME280;60387;49.994;14.660;2023-06-10T05:03:57;97530.38;;;20.70;54.25
71915;BME280;60387;49.994;14.660;2023-06-10T05:06:31;97523.50;;;20.83;54.00
71915;BME280;60387;49.994;14.660;2023-06-10T05:09:04;97530.50;;;21.03;54.25
71915;BME280;60387;49.994;14.660;2023-06-10T05:11:37;97521.53;;;21.10;53.87
71915;BME280;60387;49.994;14.660;2023-06-10T05:14:13;97539.53;;;21.33;54.95
71915;BME280;60387;49.994;14.660;2023-06-10T05:16:47;97535.78;;;21.48;54.21
71915;BME280;60387;49.994;14.660;2023-06-10T05:19:21;97539.19;;;21.68;53.86
71915;BME280;60387;49.994;14.660;2023-06-10T05:21:54;97534.63;;;21.82;53.82
71915;BME280;60387;49.994;14.660;2023-06-10T05:24:28;97548.59;;;22.00;54.77
71915;BME280;60387;49.994;14.660;2023-06-10T05:27:01;97554.66;;;22.12;54.34
71915;BME280;60387;49.994;14.660;2023-06-10T05:29:34;97551.25;;;22.29;54.69
71915;BME280;60387;49.994;14.660;2023-06-10T05:32:08;97563.28;;;22.47;55.08
71915;BME280;60387;49.994;14.660;2023-06-10T05:34:41;97568.47;;;22.59;55.16
71915;BME280;60387;49.994;14.660;2023-06-10T05:37:14;97560.78;;;22.82;54.58
71915;BME280;60387;49.994;14.660;2023-06-10T05:39:48;97571.69;;;23.19;53.92
71915;BME280;60387;49.994;14.660;2023-06-10T05:42:21;97556.03;;;23.47;53.70
71915;BME280;60387;49.994;14.660;2023-06-10T05:44:54;97562.03;;;23.66;53.80
71915;BME280;60387;49.994;14.660;2023-06-10T05:47:28;97569.94;;;23.68;53.68
71915;BME280;60387;49.994;14.660;2023-06-10T05:50:01;97569.16;;;23.71;53.68
71915;BME280;60387;49.994;14.660;2023-06-10T05:52:35;97566.44;;;23.81;53.47
71915;BME280;60387;49.994;14.660;2023-06-10T05:55:09;97563.34;;;23.97;53.34
71915;BME280;60387;49.994;14.660;2023-06-10T05:57:42;97554.25;;;24.07;53.20
71915;BME280;60387;49.994;14.660;2023-06-10T06:00:16;97566.59;;;24.34;53.03
71915;BME280;60387;49.994;14.660;2023-06-10T06:02:49;97567.00;;;24.43;52.83
71915;BME280;60387;49.994;14.660;2023-06-10T06:05:22;97573.69;;;24.52;52.34
71915;BME280;60387;49.994;14.660;2023-06-10T06:07:56;97578.84;;;24.47;51.73
71915;BME280;60387;49.994;14.660;2023-06-10T06:10:29;97580.81;;;24.36;51.83
71915;BME280;60387;49.994;14.660;2023-06-10T06:13:03;97579.22;;;24.21;51.78
71915;BME280;60387;49.994;14.660;2023-06-10T06:15:36;97578.44;;;24.27;52.08
71915;BME280;60387;49.994;14.660;2023-06-10T06:18:09;97575.69;;;24.38;52.84
71915;BME280;60387;49.994;14.660;2023-06-10T06:20:43;97586.75;;;24.45;52.20
71915;BME280;60387;49.994;14.660;2023-06-10T06:23:16;97575.28;;;24.43;52.05
71915;BME280;60387;49.994;14.660;2023-06-10T06:25:49;97577.25;;;24.42;51.84
71915;BME280;60387;49.994;14.660;2023-06-10T06:28:22;97576.88;;;24.44;51.59
71915;BME280;60387;49.994;14.660;2023-06-10T06:30:56;97590.34;;;24.56;51.91
71915;BME280;60387;49.994;14.660;2023-06-10T06:33:30;97576.50;;;24.66;51.85
71915;BME280;60387;49.994;14.660;2023-06-10T06:36:03;97575.72;;;24.69;51.45
71915;BME280;60387;49.994;14.660;2023-06-10T06:38:36;97578.88;;;24.75;51.12
71915;BME280;60387;49.994;14.660;2023-06-10T06:41:10;97579.25;;;24.52;51.48
71915;BME280;60387;49.994;14.660;2023-06-10T06:43:43;97581.22;;;24.45;51.64
71915;BME280;60387;49.994;14.660;2023-06-10T06:46:16;97584.38;;;24.36;51.91
71915;BME280;60387;49.994;14.660;2023-06-10T06:48:49;97587.16;;;24.33;52.04
71915;BME280;60387;49.994;14.660;2023-06-10T06:51:23;97582.00;;;24.35;51.64
71915;BME280;60387;49.994;14.660;2023-06-10T06:53:56;97596.63;;;24.39;52.07
71915;BME280;60387;49.994;14.660;2023-06-10T06:56:29;97585.19;;;24.40;51.83
71915;BME280;60387;49.994;14.660;2023-06-10T06:59:03;97602.59;;;24.48;51.67
71915;BME280;60387;49.994;14.660;2023-06-10T07:01:36;97603.41;;;24.52;51.65
71915;BME280;60387;49.994;14.660;2023-06-10T07:04:09;97612.09;;;24.54;51.87
71915;BME280;60387;49.994;14.660;2023-06-10T07:06:42;97623.16;;;24.50;50.97
71915;BME280;60387;49.994;14.660;2023-06-10T07:09:16;97610.50;;;24.49;51.74
71915;BME280;60387;49.994;14.660;2023-06-10T07:11:49;97623.56;;;24.49;51.71
71915;BME280;60387;49.994;14.660;2023-06-10T07:14:22;97624.75;;;24.48;51.80
71915;BME280;60387;49.994;14.660;2023-06-10T07:16:55;97623.16;;;24.50;51.36
71915;BME280;60387;49.994;14.660;2023-06-10T07:19:29;97625.59;;;24.59;51.41
71915;BME280;60387;49.994;14.660;2023-06-10T07:22:02;97621.66;;;24.67;51.44
71915;BME280;60387;49.994;14.660;2023-06-10T07:24:35;97627.16;;;24.74;51.50
71915;BME280;60387;49.994;14.660;2023-06-10T07:27:09;97631.50;;;24.75;51.32
71915;BME280;60387;49.994;14.660;2023-06-10T07:29:42;97628.75;;;24.61;50.61
71915;BME280;60387;49.994;14.660;2023-06-10T07:32:15;97636.66;;;24.73;50.85
71915;BME280;60387;49.994;14.660;2023-06-10T07:34:49;97633.88;;;24.66;51.17
71915;BME280;60387;49.994;14.660;2023-06-10T07:37:22;97628.34;;;24.66;51.22
71915;BME280;60387;49.994;14.660;2023-06-10T07:39:56;97635.09;;;24.65;51.03
71915;BME280;60387;49.994;14.660;2023-06-10T07:42:31;97634.28;;;24.57;50.83
71915;BME280;60387;49.994;14.660;2023-06-10T07:45:05;97636.63;;;24.52;51.09
71915;BME280;60387;49.994;14.660;2023-06-10T07:47:38;97633.03;;;24.48;50.97
71915;BME280;60387;49.994;14.660;2023-06-10T07:50:12;97632.66;;;24.46;51.10
71915;BME280;60387;49.994;14.660;2023-06-10T07:52:45;97644.94;;;24.52;51.20
71915;BME280;60387;49.994;14.660;2023-06-10T07:55:18;97651.66;;;24.51;50.94
71915;BME280;60387;49.994;14.660;2023-06-10T07:57:52;97638.19;;;24.39;51.09
71915;BME280;60387;49.994;14.660;2023-06-10T08:00:26;97644.50;;;24.36;50.90
71915;BME280;60387;49.994;14.660;2023-06-10T08:02:59;97648.06;;;24.29;51.26
71915;BME280;60387;49.994;14.660;2023-06-10T08:05:32;97649.63;;;24.23;51.27
71915;BME280;60387;49.994;14.660;2023-06-10T08:08:06;97653.16;;;24.17;51.56
71915;BME280;60387;49.994;14.660;2023-06-10T08:10:39;97655.09;;;24.06;51.24
71915;BME280;60387;49.994;14.660;2023-06-10T08:13:12;97663.41;;;24.06;51.58
71915;BME280;60387;49.994;14.660;2023-06-10T08:15:46;97669.69;;;23.99;51.55
71915;BME280;60387;49.994;14.660;2023-06-10T08:18:19;97657.78;;;23.85;51.87
71915;BME280;60387;49.994;14.660;2023-06-10T08:20:52;97659.00;;;23.87;51.82
71915;BME280;60387;49.994;14.660;2023-06-10T08:23:26;97668.84;;;23.85;52.11
71915;BME280;60387;49.994;14.660;2023-06-10T08:25:59;97658.19;;;23.87;52.67
71915;BME280;60387;49.994;14.660;2023-06-10T08:28:32;97666.50;;;23.87;52.83
71915;BME280;60387;49.994;14.660;2023-06-10T08:31:05;97669.63;;;23.85;52.04
71915;BME280;60387;49.994;14.660;2023-06-10T08:33:39;97666.88;;;23.85;52.62
71915;BME280;60387;49.994;14.660;2023-06-10T08:36:12;97670.38;;;23.82;52.63
71915;BME280;60387;49.994;14.660;2023-06-10T08:38:45;97676.31;;;23.84;53.20
71915;BME280;60387;49.994;14.660;2023-06-10T08:41:20;97668.78;;;23.78;52.54
71915;BME280;60387;49.994;14.660;2023-06-10T08:46:45;97669.28;;;23.90;52.71
71915;BME280;60387;49.994;14.660;2023-06-10T08:49:20;97669.69;;;23.99;53.15
71915;BME280;60387;49.994;14.660;2023-06-10T08:51:59;97671.34;;;24.11;52.99
71915;BME280;60387;49.994;14.660;2023-06-10T08:54:34;97665.41;;;24.12;53.29
71915;BME280;60387;49.994;14.660;2023-06-10T08:57:11;97678.53;;;24.29;52.74
71915;BME280;60387;49.994;14.660;2023-06-10T08:59:46;97665.88;;;24.39;52.73
71915;BME280;60387;49.994;14.660;2023-06-10T09:02:19;97674.59;;;24.44;52.40
71915;BME280;60387;49.994;14.660;2023-06-10T09:04:53;97677.81;;;24.60;52.33
71915;BME280;60387;49.994;14.660;2023-06-10T09:07:30;97677.44;;;24.69;52.03
71915;BME280;60387;49.994;14.660;2023-06-10T09:10:04;97684.56;;;24.73;52.40
71915;BME280;60387;49.994;14.660;2023-06-10T09:12:38;97675.09;;;24.81;51.82
71915;BME280;60387;49.994;14.660;2023-06-10T09:15:11;97682.59;;;24.88;51.93
71915;BME280;60387;49.994;14.660;2023-06-10T09:17:44;97670.31;;;24.82;52.22
71915;BME280;60387;49.994;14.660;2023-06-10T09:20:18;97682.97;;;24.79;51.68
71915;BME280;60387;49.994;14.660;2023-06-10T09:22:51;97677.88;;;24.85;51.43
71915;BME280;60387;49.994;14.660;2023-06-10T09:25:38;97684.19;;;24.82;51.94
71915;BME280;60387;49.994;14.660;2023-06-10T09:28:15;97690.53;;;24.93;51.65
71915;BME280;60387;49.994;14.660;2023-06-10T09:30:48;97674.66;;;24.83;51.50
71915;BME280;60387;49.994;14.660;2023-06-10T09:33:26;97686.56;;;24.83;51.24
71915;BME280;60387;49.994;14.660;2023-06-10T09:36:01;97679.81;;;24.81;51.29
71915;BME280;60387;49.994;14.660;2023-06-10T09:38:35;97693.28;;;24.82;50.93
71915;BME280;60387;49.994;14.660;2023-06-10T09:41:08;97692.91;;;24.80;50.86
71915;BME280;60387;49.994;14.660;2023-06-10T09:43:43;97694.47;;;24.78;51.27
71915;BME280;60387;49.994;14.660;2023-06-10T09:46:18;97699.63;;;24.83;50.92
71915;BME280;60387;49.994;14.660;2023-06-10T09:48:52;97695.28;;;24.89;50.89
71915;BME280;60387;49.994;14.660;2023-06-10T09:51:25;97684.19;;;24.99;51.26
71915;BME280;60387;49.994;14.660;2023-06-10T09:54:02;97687.38;;;25.08;51.04
71915;BME280;60387;49.994;14.660;2023-06-10T09:56:36;97686.97;;;25.17;50.60
71915;BME280;60387;49.994;14.660;2023-06-10T09:59:09;97688.19;;;25.23;50.55
71915;BME280;60387;49.994;14.660;2023-06-10T10:01:43;97688.56;;;25.28;50.58
71915;BME280;60387;49.994;14.660;2023-06-10T10:04:23;97691.34;;;25.46;50.34
71915;BME280;60387;49.994;14.660;2023-06-10T10:06:56;97688.13;;;25.58;50.07
71915;BME280;60387;49.994;14.660;2023-06-10T10:09:30;97698.00;;;25.80;49.94
71915;BME280;60387;49.994;14.660;2023-06-10T10:12:10;97684.53;;;25.89;49.50
71915;BME280;60387;49.994;14.660;2023-06-10T10:14:46;97691.22;;;25.98;49.06
71915;BME280;60387;49.994;14.660;2023-06-10T10:17:20;97692.44;;;25.87;48.47
71915;BME280;60387;49.994;14.660;2023-06-10T10:20:02;97691.19;;;26.09;48.44
71915;BME280;60387;49.994;14.660;2023-06-10T10:22:40;97686.88;;;25.94;48.33
71915;BME280;60387;49.994;14.660;2023-06-10T10:25:17;97683.63;;;26.13;48.75
71915;BME280;60387;49.994;14.660;2023-06-10T10:28:11;97680.44;;;26.11;48.51
71915;BME280;60387;49.994;14.660;2023-06-10T10:30:47;97678.78;;;26.31;48.54
71915;BME280;60387;49.994;14.660;2023-06-10T10:33:30;97675.47;;;26.60;48.90
71915;BME280;60387;49.994;14.660;2023-06-10T10:36:06;97673.25;;;26.92;48.30
71915;BME280;60387;49.994;14.660;2023-06-10T10:38:40;97671.47;;;27.23;47.79
71915;BME280;60387;49.994;14.660;2023-06-10T10:41:14;97670.28;;;27.60;47.46
71915;BME280;60387;49.994;14.660;2023-06-10T10:43:49;97665.84;;;28.03;46.20
71915;BME280;60387;49.994;14.660;2023-06-10T10:46:23;97673.88;;;28.28;44.89
71915;BME280;60387;49.994;14.660;2023-06-10T10:48:56;97663.75;;;28.44;42.99
71915;BME280;60387;49.994;14.660;2023-06-10T10:51:34;97649.22;;;28.56;43.96
71915;BME280;60387;49.994;14.660;2023-06-10T10:54:12;97643.38;;;28.47;42.95
71915;BME280;60387;49.994;14.660;2023-06-10T10:57:14;97671.91;;;28.85;43.22
71915;BME280;60387;49.994;14.660;2023-06-10T10:59:55;97667.91;;;29.12;42.02
71915;BME280;60387;49.994;14.660;2023-06-10T11:05:07;97647.16;;;29.59;42.17
71915;BME280;60387;49.994;14.660;2023-06-10T11:07:51;97651.69;;;29.92;39.94
71915;BME280;60387;49.994;14.660;2023-06-10T11:13:14;97637.72;;;29.92;40.09
71915;BME280;60387;49.994;14.660;2023-06-10T11:15:49;97650.56;;;29.70;39.69
71915;BME280;60387;49.994;14.660;2023-06-10T11:18:27;97644.88;;;29.74;40.38
71915;BME280;60387;49.994;14.660;2023-06-10T11:21:02;97651.47;;;29.18;40.66
71915;BME280;60387;49.994;14.660;2023-06-10T11:23:40;97653.22;;;28.55;40.81
71915;BME280;60387;49.994;14.660;2023-06-10T11:31:41;97651.44;;;27.38;43.64
71915;BME280;60387;49.994;14.660;2023-06-10T11:34:15;97652.81;;;27.13;44.55
71915;BME280;60387;49.994;14.660;2023-06-10T11:36:54;97655.50;;;26.76;45.23
71915;BME280;60387;49.994;14.660;2023-06-10T11:39:27;97648.91;;;26.56;45.44
71915;BME280;60387;49.994;14.660;2023-06-10T11:42:00;97639.06;;;26.37;45.66
71915;BME280;60387;49.994;14.660;2023-06-10T11:44:34;97637.91;;;26.28;46.47
71915;BME280;60387;49.994;14.660;2023-06-10T11:47:09;97634.81;;;26.15;47.43
71915;BME280;60387;49.994;14.660;2023-06-10T11:49:42;97639.88;;;26.34;47.04
71915;BME280;60387;49.994;14.660;2023-06-10T11:52:15;97634.25;;;26.41;48.75
71915;BME280;60387;49.994;14.660;2023-06-10T11:54:55;97628.25;;;26.57;47.51
71915;BME280;60387;49.994;14.660;2023-06-10T11:57:28;97627.91;;;26.44;48.36
71915;BME280;60387;49.994;14.660;2023-06-10T12:00:07;97618.22;;;26.70;48.03
71915;BME280;60387;49.994;14.660;2023-06-10T12:02:41;97616.97;;;26.78;47.76
71915;BME280;60387;49.994;14.660;2023-06-10T12:05:14;97618.16;;;26.80;48.15
71915;BME280;60387;49.994;14.660;2023-06-10T12:07:47;97616.97;;;26.78;47.33
71915;BME280;60387;49.994;14.660;2023-06-10T12:10:21;97601.16;;;26.68;47.94
71915;BME280;60387;49.994;14.660;2023-06-10T12:12:54;97619.75;;;26.78;47.71
71915;BME280;60387;49.994;14.660;2023-06-10T12:15:27;97616.09;;;26.88;48.45
71915;BME280;60387;49.994;14.660;2023-06-10T12:18:01;97608.06;;;26.97;47.70
71915;BME280;60387;49.994;14.660;2023-06-10T12:20:35;97617.03;;;27.18;47.59
71915;BME280;60387;49.994;14.660;2023-06-10T12:23:10;97621.38;;;27.59;47.81
71915;BME280;60387;49.994;14.660;2023-06-10T12:25:50;97616.72;;;27.86;46.80
71915;BME280;60387;49.994;14.660;2023-06-10T12:28:25;97619.34;;;28.27;46.12
71915;BME280;60387;49.994;14.660;2023-06-10T12:31:08;97621.66;;;28.62;46.57
71915;BME280;60387;49.994;14.660;2023-06-10T12:33:41;97612.88;;;28.90;45.69
71915;BME280;60387;49.994;14.660;2023-06-10T12:36:17;97618.78;;;28.95;44.89
71915;BME280;60387;49.994;14.660;2023-06-10T12:38:51;97613.97;;;28.96;45.60
71915;BME280;60387;49.994;14.660;2023-06-10T12:41:24;97607.69;;;28.88;45.27
71915;BME280;60387;49.994;14.660;2023-06-10T12:43:57;97594.72;;;28.78;45.14
71915;BME280;60387;49.994;14.660;2023-06-10T12:46:37;97604.34;;;28.74;45.36
71915;BME280;60387;49.994;14.660;2023-06-10T12:49:23;97595.31;;;28.66;45.31
71915;BME280;60387;49.994;14.660;2023-06-10T12:51:56;97589.38;;;28.64;45.36
71915;BME280;60387;49.994;14.660;2023-06-10T12:54:29;97603.81;;;28.59;44.84
71915;BME280;60387;49.994;14.660;2023-06-10T12:57:03;97592.56;;;28.63;44.64
71915;BME280;60387;49.994;14.660;2023-06-10T12:59:36;97583.56;;;28.78;45.48
71915;BME280;60387;49.994;14.660;2023-06-10T13:02:09;97591.91;;;29.05;45.38
71915;BME280;60387;49.994;14.660;2023-06-10T13:04:49;97581.75;;;29.37;43.98
71915;BME280;60387;49.994;14.660;2023-06-10T13:07:22;97577.34;;;29.59;43.52
71915;BME280;60387;49.994;14.660;2023-06-10T13:09:56;97576.13;;;29.60;42.78
71915;BME280;60387;49.994;14.660;2023-06-10T13:12:29;97548.81;;;29.48;42.20
71915;BME280;60387;49.994;14.660;2023-06-10T13:15:03;97571.00;;;29.78;40.33
71915;BME280;60387;49.994;14.660;2023-06-10T13:17:37;97557.88;;;29.75;39.73
71915;BME280;60387;49.994;14.660;2023-06-10T13:20:10;97557.78;;;29.98;40.49
71915;BME280;60387;49.994;14.660;2023-06-10T13:22:44;97570.41;;;30.06;39.65
71915;BME280;60387;49.994;14.660;2023-06-10T13:25:17;97566.41;;;30.07;37.95
71915;BME280;60387;49.994;14.660;2023-06-10T13:27:50;97586.94;;;29.97;37.54
71915;BME280;60387;49.994;14.660;2023-06-10T13:30:24;97568.59;;;30.16;36.28
71915;BME280;60387;49.994;14.660;2023-06-10T13:32:57;97573.69;;;29.82;36.09
71915;BME280;60387;49.994;14.660;2023-06-10T13:35:30;97572.78;;;29.46;36.16
71915;BME280;60387;49.994;14.660;2023-06-10T13:38:03;97566.19;;;29.59;36.44
71915;BME280;60387;49.994;14.660;2023-06-10T13:40:37;97568.34;;;29.71;36.53
71915;BME280;60387;49.994;14.660;2023-06-10T13:43:10;97566.38;;;29.68;36.39
71915;BME280;60387;49.994;14.660;2023-06-10T13:45:43;97558.38;;;29.70;35.80
71915;BME280;60387;49.994;14.660;2023-06-10T13:48:17;97576.19;;;29.96;35.51